createdAt,value
2019-02-14T00:00:18.822Z,21.03
2019-02-14T00:02:48.448Z,22.53
2019-02-14T00:05:18.088Z,21.93
2019-02-14T00:07:47.677Z,23.90
2019-02-14T00:10:17.343Z,22.33
2019-02-14T00:12:46.865Z,21.97
2019-02-14T00:15:16.527Z,23.83
2019-02-14T00:17:46.247Z,23.53
2019-02-14T00:20:15.791Z,23.53
2019-02-14T00:22:45.318Z,22.80
2019-02-14T00:25:14.979Z,23.93
2019-02-14T00:27:44.455Z,24.57
2019-02-14T00:30:14.085Z,23.60
2019-02-14T00:32:43.651Z,23.60
2019-02-14T00:35:13.243Z,23.77
2019-02-14T00:37:42.759Z,23.77
2019-02-14T00:40:12.408Z,22.67
2019-02-14T00:42:42.070Z,22.33
2019-02-14T00:45:11.708Z,22.80
2019-02-14T00:47:41.237Z,22.70
2019-02-14T00:50:10.876Z,23.10
2019-02-14T00:52:40.507Z,22.80
2019-02-14T00:55:10.061Z,21.73
2019-02-14T00:57:39.757Z,23.07
2019-02-14T01:00:10.750Z,22.53
2019-02-14T01:02:40.419Z,23.53
2019-02-14T01:05:10.044Z,21.30
2019-02-14T01:07:39.724Z,22.23
2019-02-14T01:10:09.288Z,22.70
2019-02-14T01:12:38.820Z,23.50
2019-02-14T01:15:10.242Z,23.57
2019-02-14T01:17:39.759Z,23.10
2019-02-14T01:20:09.435Z,21.33
2019-02-14T01:22:38.983Z,23.33
2019-02-14T01:25:08.639Z,22.10
2019-02-14T01:27:38.198Z,23.23
2019-02-14T01:30:11.497Z,21.57
2019-02-14T01:32:41.129Z,22.33
2019-02-14T01:35:10.872Z,22.40
2019-02-14T01:37:40.365Z,22.13
2019-02-14T01:40:10.046Z,21.57
2019-02-14T01:42:39.610Z,22.80
2019-02-14T01:45:11.507Z,21.90
2019-02-14T01:47:40.996Z,21.90
2019-02-14T01:50:11.629Z,21.87
2019-02-14T01:52:41.252Z,21.43
2019-02-14T01:55:10.838Z,20.97
2019-02-14T01:57:40.505Z,21.43
2019-02-14T02:00:15.195Z,22.17
2019-02-14T02:02:44.760Z,20.83
2019-02-14T02:05:14.451Z,20.13
2019-02-14T02:07:44.026Z,22.27
2019-02-14T02:10:13.857Z,22.07
2019-02-14T02:12:43.349Z,20.47
2019-02-14T02:15:16.280Z,21.17
2019-02-14T02:17:45.878Z,20.87
2019-02-14T02:20:15.422Z,22.20
2019-02-14T02:22:44.985Z,21.40
2019-02-14T02:25:14.757Z,21.30
2019-02-14T02:27:44.258Z,21.67
2019-02-14T02:30:15.218Z,23.03
2019-02-14T02:32:44.802Z,22.70
2019-02-14T02:35:14.496Z,23.77
2019-02-14T02:37:43.988Z,23.27
2019-02-14T02:40:13.643Z,24.80
2019-02-14T02:42:43.196Z,24.50
2019-02-14T02:45:13.330Z,23.40
2019-02-14T02:47:42.963Z,23.30
2019-02-14T02:50:13.216Z,23.13
2019-02-14T02:52:42.850Z,22.33
2019-02-14T02:55:12.452Z,24.43
2019-02-14T02:57:42.048Z,24.77
2019-02-14T03:00:16.891Z,25.13
2019-02-14T03:02:46.516Z,25.33
2019-02-14T03:05:16.740Z,23.87
2019-02-14T03:07:46.284Z,23.80
2019-02-14T03:10:15.968Z,23.73
2019-02-14T03:12:45.484Z,23.50
2019-02-14T03:15:15.963Z,24.63
2019-02-14T03:17:45.473Z,24.67
2019-02-14T03:20:15.052Z,24.73
2019-02-14T03:22:44.617Z,24.50
2019-02-14T03:25:20.679Z,25.60
2019-02-14T03:27:50.263Z,24.93
2019-02-14T03:30:19.824Z,24.57
2019-02-14T03:32:49.408Z,26.60
2019-02-14T03:35:18.980Z,25.27
2019-02-14T03:37:48.596Z,25.57
2019-02-14T03:40:18.266Z,25.60
2019-02-14T03:42:47.783Z,24.10
2019-02-14T03:45:19.383Z,25.13
2019-02-14T03:47:48.968Z,24.37
2019-02-14T03:50:18.652Z,25.57
2019-02-14T03:52:48.211Z,24.23
2019-02-14T03:55:17.705Z,25.57
2019-02-14T03:57:47.299Z,25.03
2019-02-14T04:00:17.989Z,24.53
2019-02-14T04:02:47.677Z,25.73
2019-02-14T04:05:17.386Z,24.07
2019-02-14T04:07:47.010Z,23.67
2019-02-14T04:10:16.666Z,24.67
2019-02-14T04:12:46.339Z,24.07
2019-02-14T04:15:19.278Z,23.87
2019-02-14T04:17:48.866Z,24.50
2019-02-14T04:20:18.664Z,24.83
2019-02-14T04:22:48.317Z,23.90
2019-02-14T04:25:17.911Z,24.30
2019-02-14T04:27:47.621Z,23.90
2019-02-14T04:30:17.393Z,26.67
2019-02-14T04:32:47.058Z,26.00
2019-02-14T04:35:16.690Z,26.87
2019-02-14T04:37:46.325Z,26.67
2019-02-14T04:40:15.896Z,27.73
2019-02-14T04:42:45.570Z,25.50
2019-02-14T04:45:15.234Z,26.87
2019-02-14T04:47:44.890Z,25.67
2019-02-14T04:50:14.525Z,26.20
2019-02-14T04:52:44.138Z,27.53
2019-02-14T04:55:13.845Z,27.20
2019-02-14T04:57:43.434Z,25.70
2019-02-14T05:00:15.201Z,25.97
2019-02-14T05:02:44.826Z,26.50
2019-02-14T05:05:14.485Z,27.83
2019-02-14T05:07:44.291Z,27.17
2019-02-14T05:10:13.939Z,25.33
2019-02-14T05:12:43.629Z,25.57
2019-02-14T05:15:13.296Z,24.97
2019-02-14T05:17:42.998Z,24.73
2019-02-14T05:20:13.063Z,25.50
2019-02-14T05:22:42.763Z,24.37
2019-02-14T05:25:12.257Z,24.63
2019-02-14T05:27:41.958Z,25.63
2019-02-14T05:30:21.242Z,25.63
2019-02-14T05:32:50.855Z,25.03
2019-02-14T05:35:20.395Z,23.87
2019-02-14T05:37:49.890Z,25.17
2019-02-14T05:40:19.592Z,23.17
2019-02-14T05:42:49.284Z,24.00
2019-02-14T05:45:18.991Z,24.63
2019-02-14T05:47:48.704Z,22.90
2019-02-14T05:50:19.453Z,22.97
2019-02-14T05:52:48.981Z,23.23
2019-02-14T05:55:18.681Z,25.07
2019-02-14T05:57:48.212Z,24.87
2019-02-14T06:00:19.493Z,24.10
2019-02-14T06:02:49.163Z,23.50
2019-02-14T06:05:18.785Z,23.87
2019-02-14T06:07:48.363Z,23.30
2019-02-14T06:10:17.977Z,22.33
2019-02-14T06:12:47.641Z,22.23
2019-02-14T06:15:17.318Z,22.37
2019-02-14T06:17:46.956Z,21.13
2019-02-14T06:20:16.620Z,21.40
2019-02-14T06:22:46.317Z,21.20
2019-02-14T06:25:16.006Z,19.87
2019-02-14T06:27:45.683Z,20.10
2019-02-14T06:30:16.259Z,19.57
2019-02-14T06:32:45.863Z,18.97
2019-02-14T06:35:15.513Z,18.57
2019-02-14T06:37:45.123Z,19.57
2019-02-14T06:40:15.069Z,19.13
2019-02-14T06:42:44.657Z,18.40
2019-02-14T06:45:15.839Z,18.83
2019-02-14T06:47:45.394Z,18.70
2019-02-14T06:50:15.088Z,17.90
2019-02-14T06:52:44.732Z,18.23
2019-02-14T06:55:14.539Z,18.77
2019-02-14T06:57:44.200Z,18.90
2019-02-14T07:00:15.651Z,18.00
2019-02-14T07:02:45.339Z,19.83
2019-02-14T07:05:14.999Z,20.23
2019-02-14T07:07:44.630Z,18.50
2019-02-14T07:10:14.297Z,18.80
2019-02-14T07:12:43.886Z,18.23
2019-02-14T07:15:14.557Z,17.87
2019-02-14T07:17:44.163Z,18.50
2019-02-14T07:20:15.848Z,18.47
2019-02-14T07:22:45.605Z,19.57
2019-02-14T07:25:15.275Z,18.70
2019-02-14T07:27:45.002Z,19.97
2019-02-14T07:30:22.355Z,20.00
2019-02-14T07:32:52.031Z,19.87
2019-02-14T07:35:21.689Z,20.03
2019-02-14T07:37:51.310Z,19.30
2019-02-14T07:40:20.967Z,19.17
2019-02-14T07:42:50.575Z,19.57
2019-02-14T07:45:20.341Z,19.07
2019-02-14T07:47:49.836Z,19.93
2019-02-14T07:50:19.539Z,18.03
2019-02-14T07:52:49.127Z,16.90
2019-02-14T07:55:18.813Z,16.57
2019-02-14T07:57:48.486Z,15.80
2019-02-14T08:00:19.581Z,15.37
2019-02-14T08:02:49.242Z,16.90
2019-02-14T08:05:18.967Z,17.07
2019-02-14T08:07:48.622Z,16.90
2019-02-14T08:10:19.292Z,16.30
2019-02-14T08:12:48.926Z,15.57
2019-02-14T08:15:18.622Z,14.90
2019-02-14T08:17:48.309Z,15.80
2019-02-14T08:20:20.106Z,15.87
2019-02-14T08:22:49.842Z,15.13
2019-02-14T08:25:19.430Z,16.17
2019-02-14T08:27:49.112Z,14.87
2019-02-14T08:30:20.188Z,15.47
2019-02-14T08:32:49.947Z,14.23
2019-02-14T08:35:19.690Z,14.63
2019-02-14T08:37:49.336Z,15.47
2019-02-14T08:40:33.120Z,13.67
2019-02-14T08:43:02.642Z,13.67
2019-02-14T08:45:32.295Z,14.00
2019-02-14T08:48:02.143Z,14.50
2019-02-14T08:50:31.660Z,13.93
2019-02-14T08:53:01.437Z,12.93
2019-02-14T08:55:31.110Z,14.30
2019-02-14T08:58:00.755Z,13.87
2019-02-14T09:00:30.444Z,13.60
2019-02-14T09:03:00.190Z,13.27
2019-02-14T09:05:29.948Z,13.53
2019-02-14T09:07:59.615Z,12.67
2019-02-14T09:10:29.287Z,13.30
2019-02-14T09:12:58.979Z,13.90
2019-02-14T09:15:28.755Z,12.17
2019-02-14T09:17:58.334Z,12.20
2019-02-14T09:20:28.035Z,12.47
2019-02-14T09:22:57.703Z,12.27
2019-02-14T09:25:27.350Z,12.10
2019-02-14T09:27:56.985Z,12.53
2019-02-14T09:30:26.702Z,11.90
2019-02-14T09:32:56.447Z,11.20
2019-02-14T09:35:27.199Z,11.10
2019-02-14T09:38:03.023Z,11.30
2019-02-14T09:40:28.259Z,10.83
2019-02-14T09:42:58.708Z,11.00
2019-02-14T09:45:28.374Z,10.90
2019-02-14T09:47:58.194Z,11.63
2019-02-14T09:50:27.838Z,11.03
2019-02-14T09:52:57.493Z,12.00
2019-02-14T09:55:27.069Z,12.77
2019-02-14T09:57:56.791Z,11.73
2019-02-14T10:00:26.624Z,13.03
2019-02-14T10:02:56.107Z,14.00
2019-02-14T10:05:25.888Z,12.80
2019-02-14T10:07:55.450Z,12.13
2019-02-14T10:10:25.211Z,12.47
2019-02-14T10:12:54.913Z,12.27
2019-02-14T10:15:24.602Z,12.43
2019-02-14T10:17:54.251Z,12.03
2019-02-14T10:20:23.862Z,12.07
2019-02-14T10:22:53.679Z,12.10
2019-02-14T10:25:23.321Z,11.93
2019-02-14T10:27:53.223Z,11.37
2019-02-14T10:30:24.526Z,11.30
2019-02-14T10:32:54.207Z,11.30
2019-02-14T10:35:23.925Z,11.33
2019-02-14T10:37:53.919Z,11.63
2019-02-14T10:40:23.578Z,10.90
2019-02-14T10:42:53.295Z,11.50
2019-02-14T10:45:23.863Z,10.57
2019-02-14T10:47:53.527Z,10.93
2019-02-14T10:50:23.236Z,10.57
2019-02-14T10:52:52.956Z,10.93
2019-02-14T10:55:22.787Z,11.13
2019-02-14T10:57:52.459Z,11.43
2019-02-14T11:00:24.654Z,10.23
2019-02-14T11:02:54.382Z,11.23
2019-02-14T11:05:24.162Z,10.87
2019-02-14T11:07:53.807Z,10.53
2019-02-14T11:10:23.619Z,9.93
2019-02-14T11:12:53.511Z,10.00
2019-02-14T11:15:26.775Z,8.90
2019-02-14T11:17:56.452Z,9.73
2019-02-14T11:20:26.124Z,9.30
2019-02-14T11:22:55.715Z,9.57
2019-02-14T11:25:31.834Z,9.77
2019-02-14T11:28:01.515Z,8.97
2019-02-14T11:30:31.207Z,7.67
2019-02-14T11:33:00.999Z,8.67
2019-02-14T11:35:30.600Z,8.17
2019-02-14T11:38:00.279Z,8.03
2019-02-14T11:40:29.913Z,7.97
2019-02-14T11:42:59.582Z,7.23
2019-02-14T11:45:29.280Z,8.07
2019-02-14T11:47:59.000Z,7.63
2019-02-14T11:50:28.653Z,7.60
2019-02-14T11:52:58.260Z,7.73
2019-02-14T11:55:27.939Z,7.90
2019-02-14T11:57:57.507Z,7.73
2019-02-14T12:00:27.760Z,7.90
2019-02-14T12:02:57.446Z,7.60
2019-02-14T12:05:27.107Z,8.13
2019-02-14T12:07:58.279Z,7.10
2019-02-14T12:10:28.273Z,6.60
2019-02-14T12:12:57.950Z,6.00
2019-02-14T12:15:27.623Z,7.07
2019-02-14T12:18:01.218Z,7.43
2019-02-14T12:20:33.706Z,7.40
2019-02-14T12:23:03.446Z,7.53
2019-02-14T12:25:33.821Z,7.50
2019-02-14T12:28:03.485Z,6.50
2019-02-14T12:30:33.213Z,6.87
2019-02-14T12:33:02.884Z,6.60
2019-02-14T12:35:32.529Z,7.20
2019-02-14T12:38:02.183Z,7.33
2019-02-14T12:40:31.826Z,6.90
2019-02-14T12:43:01.526Z,6.30
2019-02-14T12:45:31.188Z,6.17
2019-02-14T12:48:00.960Z,6.20
2019-02-14T12:50:30.510Z,6.13
2019-02-14T12:53:01.011Z,5.50
2019-02-14T12:55:30.667Z,5.70
2019-02-14T12:58:00.353Z,5.47
2019-02-14T13:00:30.035Z,5.73
2019-02-14T13:03:00.795Z,5.63
2019-02-14T13:05:31.589Z,5.47
2019-02-14T13:08:02.718Z,4.73
2019-02-14T13:10:32.363Z,5.10
2019-02-14T13:13:03.186Z,4.70
2019-02-14T13:15:33.050Z,4.67
2019-02-14T13:18:04.297Z,4.43
2019-02-14T13:20:38.699Z,3.70
2019-02-14T13:23:10.931Z,4.17
2019-02-14T13:25:44.165Z,3.33
2019-02-14T13:28:13.817Z,3.77
2019-02-14T13:30:46.957Z,3.00
2019-02-14T13:33:26.287Z,2.80
2019-02-14T13:39:32.733Z,3.50
2019-02-14T13:47:58.796Z,3.60
2019-02-14T13:50:34.026Z,3.50
2019-02-14T13:53:07.345Z,3.80
2019-02-14T13:55:35.997Z,3.70
2019-02-14T13:58:06.613Z,4.00
2019-02-14T14:00:37.112Z,3.90
2019-02-14T14:03:12.557Z,3.97
2019-02-14T14:05:45.309Z,4.03
2019-02-14T14:08:14.791Z,3.90
2019-02-14T14:10:44.392Z,3.53
2019-02-14T14:13:15.615Z,4.33
2019-02-14T14:15:45.144Z,3.87
2019-02-14T14:18:15.261Z,4.50
2019-02-14T14:20:44.775Z,4.40
2019-02-14T14:23:14.807Z,4.93
2019-02-14T14:25:45.145Z,4.67
2019-02-14T14:28:15.960Z,4.90
2019-02-14T14:30:46.463Z,4.10
2019-02-14T14:33:15.944Z,4.77
2019-02-14T14:35:45.494Z,4.23
2019-02-14T14:38:15.061Z,3.70
2019-02-14T14:40:44.640Z,3.93
2019-02-14T14:43:18.404Z,3.43
2019-02-14T14:45:58.478Z,3.97
2019-02-14T14:48:29.549Z,3.70
2019-02-14T14:50:59.109Z,3.67
2019-02-14T14:53:36.871Z,3.50
2019-02-14T14:56:21.801Z,3.10
2019-02-14T14:58:51.306Z,3.93
2019-02-14T15:01:20.924Z,3.73
2019-02-14T15:03:52.136Z,3.73
2019-02-14T15:07:21.949Z,4.00
2019-02-14T15:09:57.260Z,3.63
2019-02-14T15:12:22.634Z,3.60
2019-02-14T15:14:52.098Z,3.50
2019-02-14T15:17:42.703Z,4.27
2019-02-14T15:20:15.126Z,3.90
2019-02-14T15:22:47.538Z,3.57
2019-02-14T15:25:16.976Z,3.13
2019-02-14T15:27:46.595Z,3.00
2019-02-14T15:30:16.188Z,3.30
2019-02-14T15:32:45.697Z,2.80
2019-02-14T15:35:15.369Z,3.00
2019-02-14T15:37:47.130Z,3.03
2019-02-14T15:40:16.100Z,3.10
2019-02-14T15:42:45.613Z,3.60
2019-02-14T15:45:15.121Z,3.13
2019-02-14T15:47:49.092Z,3.07
2019-02-14T15:50:19.137Z,2.60
2019-02-14T15:52:48.786Z,2.97
2019-02-14T15:55:19.457Z,2.63
2019-02-14T15:57:49.511Z,2.87
2019-02-14T16:00:19.168Z,2.43
2019-02-14T16:02:50.446Z,2.43
2019-02-14T16:05:19.974Z,2.50
2019-02-14T16:07:49.500Z,2.83
2019-02-14T16:10:19.083Z,2.53
2019-02-14T16:12:48.613Z,2.43
2019-02-14T16:15:18.381Z,2.53
2019-02-14T16:17:47.861Z,2.40
2019-02-14T16:20:19.733Z,2.10
2019-02-14T16:22:48.607Z,2.20
2019-02-14T16:25:18.300Z,2.30
2019-02-14T16:27:48.276Z,2.90
2019-02-14T16:30:18.990Z,2.27
2019-02-14T16:32:48.577Z,2.37
2019-02-14T16:35:18.206Z,2.10
2019-02-14T16:37:48.725Z,2.50
2019-02-14T16:40:27.658Z,2.07
2019-02-14T16:42:50.330Z,2.30
2019-02-14T16:45:22.612Z,2.17
2019-02-14T16:47:52.618Z,2.00
2019-02-14T16:50:22.254Z,2.50
2019-02-14T16:52:51.754Z,2.27
2019-02-14T16:55:21.260Z,2.63
2019-02-14T16:57:50.758Z,2.53
2019-02-14T17:00:26.376Z,2.63
2019-02-14T17:02:56.571Z,2.40
2019-02-14T17:05:26.075Z,2.40
2019-02-14T17:07:56.107Z,2.33
2019-02-14T17:10:25.799Z,2.50
2019-02-14T17:12:55.272Z,2.47
2019-02-14T17:15:29.241Z,2.73
2019-02-14T17:17:58.778Z,3.00
2019-02-14T17:20:28.328Z,2.97
2019-02-14T17:22:57.922Z,2.67
2019-02-14T17:25:27.454Z,2.40
2019-02-14T17:27:56.995Z,3.43
2019-02-14T17:30:27.219Z,3.40
2019-02-14T17:32:56.755Z,3.00
2019-02-14T17:35:26.254Z,3.57
2019-02-14T17:37:55.732Z,4.10
2019-02-14T17:40:25.387Z,5.77
2019-02-14T17:43:01.451Z,4.33
2019-02-14T17:45:31.629Z,3.30
2019-02-14T17:48:01.190Z,3.37
2019-02-14T17:50:30.678Z,3.50
2019-02-14T17:53:00.198Z,4.27
2019-02-14T17:55:29.844Z,3.77
2019-02-14T17:57:59.518Z,4.60
2019-02-14T18:00:30.274Z,4.80
2019-02-14T18:03:00.024Z,4.30
2019-02-14T18:05:29.613Z,4.70
2019-02-14T18:07:59.191Z,4.17
2019-02-14T18:10:28.703Z,4.33
2019-02-14T18:12:58.296Z,5.17
2019-02-14T18:15:32.427Z,4.97
2019-02-14T18:18:02.047Z,5.23
2019-02-14T18:20:31.552Z,6.23
2019-02-14T18:23:01.131Z,6.73
2019-02-14T18:25:30.727Z,8.47
2019-02-14T18:28:00.239Z,9.70
2019-02-14T18:30:29.835Z,9.63
2019-02-14T18:32:59.439Z,9.37
2019-02-14T18:35:29.046Z,6.63
2019-02-14T18:37:58.664Z,7.97
2019-02-14T18:40:28.183Z,7.43
2019-02-14T18:42:57.689Z,5.63
2019-02-14T18:45:27.323Z,5.70
2019-02-14T18:47:57.581Z,5.30
2019-02-14T18:50:27.188Z,5.80
2019-02-14T18:52:56.741Z,6.20
2019-02-14T18:55:27.024Z,6.17
2019-02-14T18:57:58.619Z,6.80
2019-02-14T19:00:28.428Z,7.13
2019-02-14T19:02:58.876Z,7.40
2019-02-14T19:05:28.926Z,7.10
2019-02-14T19:07:59.558Z,6.77
2019-02-14T19:10:37.673Z,6.73
2019-02-14T19:13:09.724Z,7.43
2019-02-14T19:15:40.679Z,6.73
2019-02-14T19:18:10.385Z,7.63
2019-02-14T19:20:41.173Z,8.47
2019-02-14T19:23:23.467Z,7.83
2019-02-14T19:25:45.663Z,7.03
2019-02-14T19:28:18.223Z,7.33
2019-02-14T19:30:53.249Z,6.07
2019-02-14T19:33:24.440Z,7.00
2019-02-14T19:35:53.921Z,6.30
2019-02-14T19:38:24.147Z,5.43
2019-02-14T19:40:53.800Z,5.90
2019-02-14T19:43:23.422Z,6.07
2019-02-14T19:45:54.901Z,5.50
2019-02-14T19:48:26.170Z,6.50
2019-02-14T19:50:58.304Z,6.13
2019-02-14T19:53:31.253Z,6.43
2019-02-14T19:56:04.985Z,6.63
2019-02-14T19:58:34.526Z,6.00
2019-02-14T20:01:09.928Z,5.60
2019-02-14T20:03:40.834Z,6.27
2019-02-14T20:06:10.372Z,6.40
2019-02-14T20:08:39.956Z,6.83
2019-02-14T20:11:09.591Z,7.97
2019-02-14T20:13:39.244Z,8.07
2019-02-14T20:16:08.886Z,7.83
2019-02-14T20:18:38.455Z,7.07
2019-02-14T20:21:09.671Z,6.63
2019-02-14T20:23:49.170Z,6.33
2019-02-14T20:26:19.440Z,7.47
2019-02-14T20:28:49.016Z,7.57
2019-02-14T20:31:18.568Z,7.27
2019-02-14T20:33:48.141Z,7.23
2019-02-14T20:36:17.702Z,7.00
2019-02-14T20:38:47.350Z,8.67
2019-02-14T20:41:17.031Z,7.20
2019-02-14T20:43:51.661Z,7.90
2019-02-14T20:46:24.604Z,8.37
2019-02-14T20:48:54.076Z,9.40
2019-02-14T20:51:23.692Z,9.20
2019-02-14T20:53:53.357Z,9.70
2019-02-14T20:56:22.874Z,9.47
2019-02-14T20:58:54.425Z,9.77
2019-02-14T21:01:23.634Z,9.47
2019-02-14T21:03:53.214Z,8.43
2019-02-14T21:06:23.591Z,8.80
2019-02-14T21:08:53.178Z,8.03
2019-02-14T21:11:22.676Z,7.53
2019-02-14T21:13:52.168Z,7.80
2019-02-14T21:16:21.824Z,6.97
2019-02-14T21:18:51.326Z,8.53
2019-02-14T21:21:20.878Z,7.93
2019-02-14T21:23:50.467Z,6.97
2019-02-14T21:26:20.218Z,7.80
2019-02-14T21:28:49.791Z,7.27
2019-02-14T21:31:19.484Z,7.53
2019-02-14T21:33:49.222Z,7.27
2019-02-14T21:36:19.239Z,7.07
2019-02-14T21:38:49.846Z,7.57
2019-02-14T21:41:21.030Z,7.13
2019-02-14T21:43:50.554Z,7.30
2019-02-14T21:46:20.251Z,9.33
2019-02-14T21:48:49.749Z,10.80
2019-02-14T21:51:19.847Z,10.93
2019-02-14T21:53:49.470Z,9.73
2019-02-14T21:56:19.027Z,9.10
2019-02-14T21:58:48.675Z,8.63
2019-02-14T22:01:21.259Z,8.17
2019-02-14T22:03:51.006Z,8.73
2019-02-14T22:06:20.814Z,8.97
2019-02-14T22:08:50.581Z,8.60
2019-02-14T22:11:20.119Z,8.27
2019-02-14T22:13:50.016Z,8.40
2019-02-14T22:16:19.712Z,8.47
2019-02-14T22:18:49.686Z,8.50
2019-02-14T22:21:19.335Z,9.40
2019-02-14T22:23:49.055Z,9.07
2019-02-14T22:26:18.730Z,8.40
2019-02-14T22:28:48.254Z,8.83
2019-02-14T22:31:18.526Z,9.57
2019-02-14T22:33:48.197Z,9.33
2019-02-14T22:36:17.935Z,10.17
2019-02-14T22:38:47.422Z,9.37
2019-02-14T22:41:17.546Z,9.20
2019-02-14T22:43:47.488Z,10.17
2019-02-14T22:46:18.170Z,10.10
2019-02-14T22:48:48.004Z,9.23
2019-02-14T22:51:18.069Z,9.50
2019-02-14T22:53:47.787Z,9.50
2019-02-14T22:56:17.646Z,8.80
2019-02-14T22:58:50.879Z,8.87
2019-02-14T23:01:23.166Z,9.10
2019-02-14T23:03:52.732Z,9.40
2019-02-14T23:06:26.095Z,8.83
2019-02-14T23:08:57.303Z,9.87
2019-02-14T23:11:27.102Z,9.07
2019-02-14T23:13:57.032Z,8.73
2019-02-14T23:16:26.671Z,9.23
2019-02-14T23:18:56.282Z,9.10
2019-02-14T23:21:26.314Z,8.50
2019-02-14T23:23:56.277Z,8.70
2019-02-14T23:26:25.873Z,9.37
2019-02-14T23:28:56.121Z,9.40
2019-02-14T23:31:27.822Z,9.37
2019-02-14T23:33:57.644Z,10.33
2019-02-14T23:36:27.160Z,8.90
2019-02-14T23:38:57.967Z,8.80
2019-02-14T23:41:27.978Z,8.53
2019-02-14T23:43:57.576Z,9.27
2019-02-14T23:46:28.397Z,8.73
2019-02-14T23:48:57.956Z,8.77
2019-02-14T23:51:27.678Z,8.70
2019-02-14T23:53:57.608Z,8.77
2019-02-14T23:56:27.769Z,9.50
2019-02-14T23:58:57.296Z,9.33
